Flight Track Log - Related Links

Times and Time Zones

All times are in EDT time to prevent confusion due to time zone crossing. See the SWA3943 flight status page for this flight to view local times or setup timezone preferences in your user account.

Time Position Orientation Groundspeed Altitude Reporting Facility
EDT Latitude Longitude Course Direction KTS MPH feet Rate Location/Type
Fri 05:42:37 PM 28.4333 -81.3000 350° North 176 203 800  Level Orlando TRACON
Fri 05:43:01 PM 28.4500 -81.2833 41° Northeast 179 206 1,500 2,051 Climbing Orlando TRACON
Fri 05:43:56 PM 28.5167 -81.2667 12° North 228 262 3,500 2,035 Climbing Orlando TRACON
Fri 05:44:56 PM 28.5667 -81.2833 344° North 261 300 5,400 2,368 Climbing Orlando TRACON
Fri 05:46:28 PM 28.6581 -81.3453 329° Northwest 279 321 9,500 2,487 Climbing Jacksonville Center
Fri 05:47:28 PM 28.7214 -81.4036 321° Northwest 284 327 11,700 2,050 Climbing Jacksonville Center
Fri 05:48:00 PM 29.0126 -81.3692 350° North  Level FlightAware Approximate
Fri 05:48:28 PM 28.7994 -81.4639 326° Northwest 310 357 13,600  Level Jacksonville Center
Fri 05:49:28 PM 28.8856 -81.5150 333° Northwest 336 387 16,100 2,100 Climbing Jacksonville Center
Fri 05:50:28 PM 28.9858 -81.5419 347° North 353 406 17,800 1,933 Climbing Jacksonville Center
Fri 05:52:28 PM 29.1975 -81.6033 346° North 385 443 21,900 1,933 Climbing Jacksonville Center
Fri 05:53:28 PM 29.3125 -81.6422 344° North 385 443 23,600 1,800 Climbing Jacksonville Center
Fri 05:54:28 PM 29.4256 -81.6717 347° North 401 461 25,500 1,700 Climbing Jacksonville Center
Fri 05:55:28 PM 29.5386 -81.7014 347° North 401 461 27,000 1,650 Climbing Jacksonville Center
Fri 05:56:28 PM 29.6517 -81.7336 346° North 406 467 28,800 1,950 Climbing Jacksonville Center
Fri 05:57:28 PM 29.7644 -81.7489 353° North 406 467 30,900 1,850 Climbing Jacksonville Center
Fri 05:58:28 PM 29.8731 -81.7597 355° North 406 467 32,500 1,250 Climbing Jacksonville Center
Fri 05:59:28 PM 29.9839 -81.7703 355° North 406 467 33,400 1,000 Climbing Jacksonville Center
Fri 06:00:28 PM 30.0842 -81.7764 357° North 400 460 34,500 800 Climbing Jacksonville Center
Fri 06:01:28 PM 30.1928 -81.7872 355° North 400 460 35,000 250 Climbing Jacksonville Center
Fri 06:02:28 PM 30.3014 -81.8003 354° North 395 455 35,000  Level Jacksonville Center
Fri 06:03:28 PM 30.4103 -81.8086 356° North 395 455 35,000  Level Jacksonville Center
Fri 06:04:28 PM 30.5208 -81.8194 355° North 389 448 35,000  Level Jacksonville Center
Fri 06:05:28 PM 30.6317 -81.8375 352° North 394 453 35,000  Level Jacksonville Center
Fri 06:06:28 PM 30.7403 -81.8483 355° North 389 448 35,000  Level Jacksonville Center
Fri 06:08:53 PM 31.0161 -81.8756 355° North 402 463 35,000  Level Atlanta Center
Fri 06:09:53 PM 31.1267 -81.8875 355° North 402 463 35,000  Level Atlanta Center
Fri 06:10:53 PM 31.2375 -81.8994 355° North 402 463 35,000  Level Atlanta Center
Fri 06:11:53 PM 31.3483 -81.9114 355° North 402 463 35,000  Level Atlanta Center
Fri 06:12:53 PM 31.4572 -81.9211 356° North 396 456 35,000  Level Atlanta Center
Fri 06:13:53 PM 31.5700 -81.9353 354° North 396 456 35,000  Level Atlanta Center
Fri 06:14:53 PM 31.6808 -81.9450 356° North 396 456 35,000  Level Atlanta Center
Fri 06:15:53 PM 31.7917 -81.9572 355° North 401 461 35,000  Level Atlanta Center
Fri 06:16:53 PM 31.9025 -81.9692 355° North 401 461 35,000  Level Atlanta Center
Fri 06:17:53 PM 32.0111 -81.9789 356° North 394 453 35,000  Level Atlanta Center
Fri 06:18:53 PM 32.1178 -81.9911 354° North 389 448 35,000  Level Atlanta Center
Fri 06:19:53 PM 32.2264 -82.0033 355° North 389 448 35,000  Level Atlanta Center
Fri 06:20:53 PM 32.3186 -82.0111 356° North 384 442 35,000  Level Atlanta Center
Fri 06:21:53 PM 32.4231 -82.0236 354° North 384 442 35,000  Level Atlanta Center
Fri 06:22:53 PM 32.5314 -82.0186 North 384 442 35,000  Level Atlanta Center
Fri 06:23:53 PM 32.6378 -82.0136 North 384 442 35,000  Level Atlanta Center
Fri 06:24:53 PM 32.7442 -82.0111 North 378 435 35,000  Level Atlanta Center
Fri 06:25:53 PM 32.8486 -82.0064 North 373 429 35,000  Level Atlanta Center
Fri 06:26:53 PM 32.9528 -82.0039 North 373 429 35,000  Level Atlanta Center
Fri 06:27:53 PM 33.0550 -81.9992 North 368 423 35,000  Level Atlanta Center
Fri 06:28:53 PM 33.1614 -81.9942 North 368 423 35,000  Level Atlanta Center
Fri 06:29:53 PM 33.2636 -81.9917 North 363 418 35,000  Level Atlanta Center
Fri 06:30:53 PM 33.3658 -81.9869 North 363 418 35,000  Level Atlanta Center
Fri 06:31:53 PM 33.4661 -81.9819 North 363 418 35,000  Level Atlanta Center
Fri 06:32:53 PM 33.5703 -81.9819 360° North 363 418 35,000  Level Atlanta Center
Fri 06:33:53 PM 33.6831 -81.9767 North 363 418 35,000  Level Atlanta Center
Fri 06:34:53 PM 33.7872 -81.9717 North 363 418 35,000  Level Atlanta Center
Fri 06:35:53 PM 33.8917 -81.9667 North 363 418 35,000  Level Atlanta Center
Fri 06:36:53 PM 33.9939 -81.9642 North 363 418 35,000  Level Atlanta Center
Fri 06:37:53 PM 34.0961 -81.9617 North 363 418 35,000  Level Atlanta Center
Fri 06:38:53 PM 34.1983 -81.9592 North 363 418 35,000  Level Atlanta Center
Fri 06:39:53 PM 34.3003 -81.9517 North 363 418 35,000  Level Atlanta Center
Fri 06:40:53 PM 34.4006 -81.9492 North 358 412 35,000  Level Atlanta Center
Fri 06:41:53 PM 34.5006 -81.9467 North 364 419 35,000  Level Atlanta Center
Fri 06:42:53 PM 34.6008 -81.9467 360° North 364 419 35,000  Level Atlanta Center
Fri 06:43:53 PM 34.7031 -81.9442 North 364 419 35,000  Level Atlanta Center
Fri 06:44:53 PM 34.8053 -81.9392 North 364 419 35,000  Level Atlanta Center
Fri 06:45:53 PM 34.9094 -81.9364 North 364 419 35,000  Level Atlanta Center
Fri 06:46:53 PM 35.0097 -81.9339 North 364 419 35,000  Level Atlanta Center
Fri 06:47:53 PM 35.1158 -81.9286 North 369 425 35,000  Level Atlanta Center
Fri 06:48:53 PM 35.2097 -81.9264 North 369 425 35,000  Level Atlanta Center
Fri 06:49:53 PM 35.3161 -81.9186 North 369 425 35,000  Level Atlanta Center
Fri 06:50:53 PM 35.4183 -81.9133 North 369 425 35,000  Level Atlanta Center
Fri 06:51:53 PM 35.5244 -81.9106 North 369 425 35,000  Level Atlanta Center
Fri 06:52:53 PM 35.6433 -81.9050 North 379 436 35,000  Level Atlanta Center
Fri 06:53:53 PM 35.7475 -81.8997 North 379 436 35,000  Level Atlanta Center
Fri 06:54:53 PM 35.8539 -81.8917 North 379 436 35,000  Level Atlanta Center
Fri 06:55:53 PM 35.9603 -81.8889 North 379 436 35,000  Level Atlanta Center
Fri 06:56:53 PM 36.0664 -81.8808 North 380 437 35,000  Level Atlanta Center
Fri 06:57:53 PM 36.1686 -81.8783 North 375 432 35,000  Level Atlanta Center
Fri 06:58:53 PM 36.2728 -81.8728 North 369 425 35,000  Level Atlanta Center
Fri 06:59:53 PM 36.3664 -81.8653 North 369 425 35,000  Level Atlanta Center
Fri 07:00:53 PM 36.4728 -81.8597 North 369 425 35,000  Level Atlanta Center
Fri 07:02:34 PM 36.6572 -81.8519 North 383 441 35,000  Level Indianapolis Center
Fri 07:03:36 PM 36.7639 -81.8467 North 384 442 35,000  Level Indianapolis Center
Fri 07:04:38 PM 36.8692 -81.8422 North 378 435 35,000  Level Indianapolis Center
Fri 07:05:39 PM 36.9744 -81.8367 North 378 435 35,000 -195 Level Indianapolis Center
Fri 07:06:41 PM 37.1000 -81.8319 North 384 442 34,600 -629 Descending Indianapolis Center
Fri 07:07:43 PM 37.2067 -81.8256 North 384 442 33,700 -774 Descending Indianapolis Center
Fri 07:08:45 PM 37.3153 -81.8211 North 388 447 33,000 -341 Descending Indianapolis Center
Fri 07:09:46 PM 37.4247 -81.8158 North 392 451 33,000 -341 Level Indianapolis Center
Fri 07:10:48 PM 37.5356 -81.8100 North 397 457 32,300 -823 Descending Indianapolis Center
Fri 07:11:50 PM 37.6483 -81.8058 North 403 464 31,300 -629 Descending Indianapolis Center
Fri 07:12:52 PM 37.7786 -81.7983 North 401 461 31,000 -146 Descending Indianapolis Center
Fri 07:13:53 PM 37.8883 -81.7933 North 405 466 31,000  Level Indianapolis Center
Fri 07:14:55 PM 38.0042 -81.7872 North 413 475 31,000  Level Indianapolis Center
Fri 07:15:57 PM 38.1194 -81.7814 North 416 479 31,000 -484 Level Indianapolis Center
Fri 07:16:59 PM 38.2361 -81.7761 North 417 480 30,000 -976 Descending Indianapolis Center
Fri 07:18:00 PM 38.3469 -81.7733 North 401 461 29,000 -1,024 Descending Indianapolis Center
Fri 07:19:02 PM 38.4389 -81.8253 336° Northwest 366 421 27,900 -968 Descending Indianapolis Center
Fri 07:20:04 PM 38.5272 -81.8833 333° Northwest 357 411 27,000 -1,073 Descending Indianapolis Center
Fri 07:21:05 PM 38.6356 -81.9506 334° Northwest 356 410 25,700 -1,171 Descending Indianapolis Center
Fri 07:22:07 PM 38.7247 -82.0078 333° Northwest 356 410 24,600 -968 Descending Indianapolis Center
Fri 07:23:09 PM 38.8214 -82.0542 340° North 370 426 23,700 -774 Descending Indianapolis Center
Fri 07:24:11 PM 38.9236 -82.0942 343° North 380 437 23,000 -439 Descending Indianapolis Center
Fri 07:25:12 PM 39.0253 -82.1353 343° North 382 440 22,800 -1,073 Descending Indianapolis Center
Fri 07:26:14 PM 39.1231 -82.1733 343° North 368 423 20,800 -1,887 Descending Indianapolis Center
Fri 07:27:16 PM 39.2161 -82.2103 343° North 351 404 18,900 -1,771 Descending Indianapolis Center
Fri 07:27:59 PM 39.2864 -82.2425 340° North 327 376 17,700 -1,574 Descending Indianapolis Center
Fri 07:28:17 PM 39.3042 -82.2447 354° North 331 381 17,300 -2,073 Descending Indianapolis Center
Fri 07:28:54 PM 39.3661 -82.2694 343° North 321 369 15,800 -1,935 Descending Indianapolis Center
Fri 07:29:19 PM 39.3897 -82.2786 343° North 322 371 15,300 -1,869 Descending Indianapolis Center
Fri 07:29:55 PM 39.4497 -82.3053 341° North 315 362 13,900 -2,226 Descending Indianapolis Center
Fri 07:30:21 PM 39.4864 -82.3181 345° North 313 360 13,000 -1,500 Descending Indianapolis Center
Fri 07:30:55 PM 39.5289 -82.3431 336° Northwest 310 357 12,400 -1,082 Descending Indianapolis Center
Fri 07:31:22 PM 39.5633 -82.3642 335° Northwest 302 348 11,900 -1,082 Descending Indianapolis Center
Fri 07:31:56 PM 39.6114 -82.3950 334° Northwest 303 349 11,300 -968 Descending Indianapolis Center
Fri 07:32:24 PM 39.6406 -82.4153 332° Northwest 307 353 10,900 -885 Descending Indianapolis Center
Fri 07:32:57 PM 39.6850 -82.4544 326° Northwest 316 364 10,400 -871 Descending Indianapolis Center
Fri 07:33:26 PM 39.7050 -82.4908 306° West 318 366 10,000 -689 Descending Indianapolis Center
Fri 07:33:58 PM 39.7311 -82.5514 299° West 322 371 9,700 -689 Descending Indianapolis Center
Fri 07:34:27 PM 39.7492 -82.5864 304° West 309 356 9,300 -1,279 Descending Indianapolis Center
Fri 07:34:59 PM 39.7717 -82.6372 300° West 280 322 8,400 -1,548 Descending Indianapolis Center
Fri 07:35:29 PM 39.7889 -82.6717 303° West 279 321 7,700 -1,475 Descending Indianapolis Center
Fri 07:36:00 PM 39.8119 -82.7231 300° West 268 308 6,900 -1,279 Descending Indianapolis Center
Fri 07:36:30 PM 39.8294 -82.7558 305° West 274 315 6,400 -900 Descending Indianapolis Center
Fri 07:37:00 PM 39.8506 -82.8033 300° West 267 307 6,000 -484 Descending Indianapolis Center
Fri 07:37:32 PM 39.8686 -82.8392 303° West 270 311 5,900 -197 Descending Indianapolis Center
Fri 07:38:01 PM 39.8928 -82.8922 301° West 264 304 5,800 -1,065 Descending Indianapolis Center
Fri 07:38:34 PM 39.9036 -82.9400 286° West 265 305 4,800 -1,574 Descending Indianapolis Center
Fri 07:39:02 PM 39.9114 -82.9867 282° West 271 312 4,200 -1,475 Descending Indianapolis Center
Fri 07:39:35 PM 39.9225 -83.0333 287° West 266 306 3,300 -1,180 Descending Indianapolis Center
Fri 07:40:03 PM 39.9506 -83.0592 325° Northwest 255 293 3,000 -387 Descending Indianapolis Center
Fri 07:40:37 PM 39.9842 -83.0556 North 250 288 2,900 -98 Descending Indianapolis Center
Fri 07:41:04 PM 40.0003 -83.0350 44° Northeast 192 221 2,900 -787 Level Indianapolis Center
Fri 07:41:38 PM 40.0011 -82.9967 88° East 212 244 2,100 -1,200 Descending Indianapolis Center
Fri 07:42:04 PM 39.9986 -82.9697 97° East 174 200 1,700 -871 Descending Indianapolis Center
Fri 07:42:40 PM 39.9967 -82.9378 95° East 181 208 1,200 -787 Descending Indianapolis Center
Fri 07:43:05 PM 39.9958 -82.9150 93° East 138 159 900 -194 Descending Indianapolis Center
Fri 07:43:42 PM 39.9928 -82.8769 96° East 172 198 1,000 162 Climbing Indianapolis Center

Login

Don't have an account? Register now (free) for customized features, flight alerts, and more!